createdAt,value
2018-05-09T00:01:36.951Z,5.47
2018-05-09T00:04:05.249Z,5.27
2018-05-09T00:06:32.745Z,5.63
2018-05-09T00:09:00.245Z,5.33
2018-05-09T00:11:28.587Z,6.20
2018-05-09T00:13:56.182Z,7.13
2018-05-09T00:16:23.780Z,5.53
2018-05-09T00:18:51.318Z,6.73
2018-05-09T00:21:18.872Z,5.23
2018-05-09T00:23:46.366Z,5.63
2018-05-09T00:26:13.903Z,6.87
2018-05-09T00:28:41.429Z,4.87
2018-05-09T00:31:10.318Z,5.30
2018-05-09T00:33:38.590Z,5.20
2018-05-09T00:36:06.860Z,7.20
2018-05-09T00:38:35.155Z,5.33
2018-05-09T00:41:02.697Z,5.43
2018-05-09T00:43:30.981Z,5.43
2018-05-09T00:45:59.261Z,5.47
2018-05-09T00:48:27.554Z,6.63
2018-05-09T00:50:55.035Z,5.57
2018-05-09T00:53:22.590Z,7.97
2018-05-09T00:55:50.097Z,5.93
2018-05-09T00:58:18.402Z,6.80
2018-05-09T01:00:45.955Z,9.13
2018-05-09T01:03:13.453Z,7.30
2018-05-09T01:05:40.983Z,8.03
2018-05-09T01:08:08.489Z,7.53
2018-05-09T01:10:36.043Z,6.07
2018-05-09T01:13:03.540Z,7.50
2018-05-09T01:15:31.849Z,7.33
2018-05-09T01:18:00.317Z,7.30
2018-05-09T01:20:27.854Z,7.87
2018-05-09T01:22:56.110Z,7.10
2018-05-09T01:25:23.644Z,6.97
2018-05-09T01:27:51.181Z,6.87
2018-05-09T01:30:18.663Z,7.50
2018-05-09T01:32:46.195Z,8.07
2018-05-09T01:35:13.698Z,8.47
2018-05-09T01:37:41.231Z,9.07
2018-05-09T01:40:08.738Z,8.03
2018-05-09T01:42:37.046Z,9.03
2018-05-09T01:45:04.575Z,7.67
2018-05-09T01:47:32.851Z,8.10
2018-05-09T01:50:01.130Z,7.33
2018-05-09T01:52:28.646Z,7.40
2018-05-09T01:54:56.256Z,10.43
2018-05-09T01:57:23.704Z,8.20
2018-05-09T01:59:51.979Z,9.10
2018-05-09T02:02:20.250Z,8.83
2018-05-09T02:04:48.557Z,7.37
2018-05-09T02:07:16.093Z,7.93
2018-05-09T02:09:45.271Z,7.83
2018-05-09T02:12:14.392Z,9.13
2018-05-09T02:14:41.945Z,10.50
2018-05-09T02:17:09.466Z,9.03
2018-05-09T02:19:37.006Z,9.23
2018-05-09T02:22:04.502Z,10.03
2018-05-09T02:24:32.779Z,10.20
2018-05-09T02:27:01.048Z,8.73
2018-05-09T02:29:28.579Z,9.27
2018-05-09T02:31:56.099Z,11.60
2018-05-09T02:34:23.631Z,8.77
2018-05-09T02:36:51.920Z,12.40
2018-05-09T02:39:20.688Z,9.53
2018-05-09T02:41:48.187Z,9.10
2018-05-09T02:44:15.724Z,10.63
2018-05-09T02:46:44.064Z,9.33
2018-05-09T02:49:11.604Z,8.43
2018-05-09T02:51:39.134Z,10.30
2018-05-09T02:54:07.558Z,10.33
2018-05-09T02:56:35.124Z,11.00
2018-05-09T02:59:02.759Z,8.50
2018-05-09T03:01:30.846Z,10.20
2018-05-09T03:03:58.377Z,11.70
2018-05-09T03:06:25.888Z,11.60
2018-05-09T03:08:53.371Z,9.60
2018-05-09T03:11:21.661Z,10.70
2018-05-09T03:13:49.194Z,12.13
2018-05-09T03:16:17.461Z,9.40
2018-05-09T03:18:45.720Z,8.77
2018-05-09T03:21:13.233Z,12.47
2018-05-09T03:23:40.756Z,12.17
2018-05-09T03:26:09.040Z,11.47
2018-05-09T03:28:37.309Z,10.07
2018-05-09T03:31:05.587Z,9.83
2018-05-09T03:33:33.879Z,10.90
2018-05-09T03:36:02.307Z,11.37
2018-05-09T03:38:29.900Z,9.13
2018-05-09T03:40:58.908Z,11.77
2018-05-09T03:43:26.446Z,12.80
2018-05-09T03:45:54.712Z,12.03
2018-05-09T03:48:22.221Z,11.83
2018-05-09T03:50:49.749Z,10.43
2018-05-09T03:53:18.051Z,12.33
2018-05-09T03:55:46.337Z,11.27
2018-05-09T03:58:13.869Z,11.50
2018-05-09T04:00:42.921Z,10.87
2018-05-09T04:03:22.484Z,11.90
2018-05-09T04:06:02.606Z,11.27
2018-05-09T04:08:42.193Z,14.03
2018-05-09T04:11:11.242Z,13.13
2018-05-09T04:13:38.775Z,12.67
2018-05-09T04:16:06.257Z,14.00
2018-05-09T04:18:33.821Z,15.17
2018-05-09T04:21:01.435Z,16.30
2018-05-09T04:23:28.888Z,13.43
2018-05-09T04:25:56.414Z,14.33
2018-05-09T04:28:23.895Z,14.43
2018-05-09T04:30:52.923Z,11.67
2018-05-09T04:33:20.416Z,11.60
2018-05-09T04:35:48.441Z,12.40
2018-05-09T04:38:15.949Z,12.17
2018-05-09T04:40:43.464Z,13.23
2018-05-09T04:43:10.956Z,16.07
2018-05-09T04:45:38.472Z,15.57
2018-05-09T04:48:06.020Z,14.53
2018-05-09T04:50:34.292Z,14.77
2018-05-09T04:53:01.818Z,15.87
2018-05-09T04:55:29.352Z,11.57
2018-05-09T04:57:56.831Z,13.33
2018-05-09T05:00:24.356Z,11.10
2018-05-09T05:02:51.854Z,13.73
2018-05-09T05:05:19.351Z,15.00
2018-05-09T05:07:46.874Z,13.13
2018-05-09T05:10:14.380Z,11.70
2018-05-09T05:12:42.356Z,12.33
2018-05-09T05:15:09.854Z,16.67
2018-05-09T05:17:37.349Z,14.00
2018-05-09T05:20:04.870Z,10.97
2018-05-09T05:22:32.391Z,11.80
2018-05-09T05:25:00.001Z,11.90
2018-05-09T05:27:27.454Z,11.87
2018-05-09T05:29:55.713Z,13.90
2018-05-09T05:32:23.251Z,10.57
2018-05-09T05:34:51.227Z,11.47
2018-05-09T05:37:18.760Z,14.57
2018-05-09T05:39:47.009Z,12.63
2018-05-09T05:42:15.323Z,14.53
2018-05-09T05:44:42.828Z,12.70
2018-05-09T05:47:10.370Z,14.13
2018-05-09T05:49:38.827Z,12.77
2018-05-09T05:52:06.385Z,12.20
2018-05-09T05:54:33.880Z,14.43
2018-05-09T05:57:02.283Z,12.87
2018-05-09T05:59:30.549Z,14.90
2018-05-09T06:01:58.810Z,12.67
2018-05-09T06:04:26.335Z,11.70
2018-05-09T06:06:54.549Z,17.73
2018-05-09T06:09:22.841Z,14.17
2018-05-09T06:11:50.464Z,11.43
2018-05-09T06:14:18.034Z,14.63
2018-05-09T06:16:45.586Z,16.93
2018-05-09T06:19:13.140Z,11.47
2018-05-09T06:21:40.627Z,10.80
2018-05-09T06:24:08.956Z,12.33
2018-05-09T06:26:36.880Z,12.20
2018-05-09T06:29:10.267Z,11.70
2018-05-09T06:31:38.347Z,13.77
2018-05-09T06:34:07.796Z,14.70
2018-05-09T06:36:35.484Z,14.53
2018-05-09T06:39:03.038Z,14.57
2018-05-09T06:41:31.085Z,11.63
2018-05-09T06:44:00.267Z,10.67
2018-05-09T06:46:27.900Z,14.17
2018-05-09T06:48:56.989Z,12.50
2018-05-09T06:51:25.286Z,11.60
2018-05-09T06:53:52.824Z,12.90
2018-05-09T06:56:21.135Z,13.97
2018-05-09T06:58:48.927Z,12.70
2018-05-09T07:01:17.419Z,12.17
2018-05-09T07:03:45.798Z,13.77
2018-05-09T07:06:14.044Z,9.90
2018-05-09T07:08:41.537Z,12.93
2018-05-09T07:11:09.049Z,10.23
2018-05-09T07:13:36.592Z,10.80
2018-05-09T07:16:05.306Z,9.87
2018-05-09T07:18:33.684Z,10.30
2018-05-09T07:21:01.350Z,11.60
2018-05-09T07:23:28.912Z,8.70
2018-05-09T07:25:56.455Z,14.00
2018-05-09T07:28:24.013Z,11.00
2018-05-09T07:30:51.551Z,10.23
2018-05-09T07:33:19.079Z,8.87
2018-05-09T07:35:47.474Z,8.53
2018-05-09T07:38:15.772Z,10.50
2018-05-09T07:40:43.315Z,9.00
2018-05-09T07:43:11.616Z,8.43
2018-05-09T07:45:39.159Z,8.83
2018-05-09T07:48:07.470Z,13.97
2018-05-09T07:50:35.723Z,9.17
2018-05-09T07:53:03.258Z,10.97
2018-05-09T07:55:31.607Z,9.17
2018-05-09T07:57:59.852Z,8.60
2018-05-09T08:00:27.404Z,11.27
2018-05-09T08:02:54.917Z,9.43
2018-05-09T08:05:24.257Z,11.17
2018-05-09T08:07:51.909Z,10.87
2018-05-09T08:10:19.442Z,8.57
2018-05-09T08:12:47.776Z,10.27
2018-05-09T08:15:15.300Z,8.87
2018-05-09T08:17:44.274Z,16.17
2018-05-09T08:20:12.580Z,10.63
2018-05-09T08:22:40.148Z,8.83
2018-05-09T08:25:08.520Z,12.40
2018-05-09T08:27:36.064Z,9.80
2018-05-09T08:30:04.528Z,6.80
2018-05-09T08:32:31.963Z,6.83
2018-05-09T08:34:59.484Z,12.33
2018-05-09T08:37:27.020Z,11.50
2018-05-09T08:39:54.608Z,8.10
2018-05-09T08:42:22.220Z,5.97
2018-05-09T08:44:50.947Z,10.03
2018-05-09T08:47:18.480Z,8.23
2018-05-09T08:49:47.112Z,7.40
2018-05-09T08:52:14.673Z,9.17
2018-05-09T08:54:43.032Z,10.10
2018-05-09T08:57:10.710Z,8.40
2018-05-09T08:59:38.711Z,8.63
2018-05-09T09:02:07.049Z,8.30
2018-05-09T09:04:34.727Z,9.67
2018-05-09T09:07:02.364Z,9.60
2018-05-09T09:09:31.276Z,8.60
2018-05-09T09:11:59.726Z,8.60
2018-05-09T09:14:27.339Z,9.17
2018-05-09T09:16:54.944Z,12.80
2018-05-09T09:19:22.493Z,8.60
2018-05-09T09:21:50.030Z,8.10
2018-05-09T09:24:18.347Z,9.83
2018-05-09T09:26:47.044Z,9.43
2018-05-09T09:29:14.633Z,7.77
2018-05-09T09:31:42.147Z,8.07
2018-05-09T09:34:09.672Z,7.47
2018-05-09T09:36:40.426Z,9.03
2018-05-09T09:39:07.968Z,5.60
2018-05-09T09:41:36.258Z,6.23
2018-05-09T09:44:03.953Z,9.07
2018-05-09T09:46:31.499Z,7.23
2018-05-09T09:48:59.020Z,6.13
2018-05-09T09:51:27.364Z,5.37
2018-05-09T09:53:54.997Z,6.27
2018-05-09T09:56:22.708Z,6.00
2018-05-09T09:58:50.231Z,7.53
2018-05-09T10:01:17.781Z,8.57
2018-05-09T10:03:45.312Z,6.37
2018-05-09T10:06:13.619Z,8.60
2018-05-09T10:08:41.857Z,8.33
2018-05-09T10:11:10.787Z,9.23
2018-05-09T10:13:39.075Z,8.80
2018-05-09T10:16:06.667Z,6.27
2018-05-09T10:18:34.163Z,5.57
2018-05-09T10:21:03.325Z,7.50
2018-05-09T10:23:31.680Z,7.43
2018-05-09T10:25:59.211Z,8.33
2018-05-09T10:28:26.725Z,8.70
2018-05-09T10:30:55.855Z,6.00
2018-05-09T10:33:23.399Z,8.63
2018-05-09T10:35:50.923Z,12.33
2018-05-09T10:38:18.443Z,8.10
2018-05-09T10:40:46.742Z,7.37
2018-05-09T10:43:14.274Z,6.30
2018-05-09T10:45:41.799Z,8.50
2018-05-09T10:48:10.065Z,6.40
2018-05-09T10:50:38.579Z,9.03
2018-05-09T10:53:06.076Z,7.77
2018-05-09T10:55:33.605Z,9.13
2018-05-09T10:58:01.744Z,6.70
2018-05-09T11:00:30.036Z,9.47
2018-05-09T11:02:57.598Z,5.40
2018-05-09T11:05:25.129Z,6.10
2018-05-09T11:07:53.500Z,8.97
2018-05-09T11:10:21.268Z,6.23
2018-05-09T11:12:48.792Z,6.23
2018-05-09T11:15:16.290Z,5.43
2018-05-09T11:17:44.614Z,5.27
2018-05-09T11:20:12.176Z,6.60
2018-05-09T11:22:39.741Z,7.60
2018-05-09T11:25:07.287Z,8.07
2018-05-09T11:27:34.782Z,8.40
2018-05-09T11:30:02.299Z,7.97
2018-05-09T11:32:31.165Z,6.67
2018-05-09T11:34:58.781Z,8.13
2018-05-09T11:37:27.156Z,7.67
2018-05-09T11:39:55.399Z,8.50
2018-05-09T11:42:22.954Z,5.83
2018-05-09T11:44:51.093Z,7.77
2018-05-09T11:47:19.433Z,7.83
2018-05-09T11:49:46.984Z,7.40
2018-05-09T11:52:15.009Z,5.83
2018-05-09T11:54:43.291Z,5.43
2018-05-09T11:57:11.674Z,6.63
2018-05-09T11:59:39.334Z,10.97
2018-05-09T12:02:06.895Z,6.80
2018-05-09T12:04:35.203Z,8.47
2018-05-09T12:07:02.752Z,6.70
2018-05-09T12:09:30.289Z,7.80
2018-05-09T12:11:57.823Z,6.53
2018-05-09T12:14:25.450Z,8.53
2018-05-09T12:16:53.058Z,6.97
2018-05-09T12:19:20.657Z,6.37
2018-05-09T12:21:48.173Z,7.33
2018-05-09T12:24:16.523Z,7.93
2018-05-09T12:26:44.038Z,8.33
